createdAt,value
2019-04-10T00:02:16.197Z,7.82
2019-04-10T00:04:48.063Z,7.75
2019-04-10T00:07:21.148Z,7.60
2019-04-10T00:09:53.603Z,7.86
2019-04-10T00:12:25.565Z,7.69
2019-04-10T00:14:57.603Z,7.56
2019-04-10T00:17:29.317Z,7.88
2019-04-10T00:20:02.402Z,7.68
2019-04-10T00:22:34.246Z,7.65
2019-04-10T00:25:06.197Z,7.72
2019-04-10T00:27:38.936Z,7.75
2019-04-10T00:30:11.298Z,7.47
2019-04-10T00:32:43.930Z,7.47
2019-04-10T00:35:15.631Z,7.58
2019-04-10T00:37:47.381Z,7.57
2019-04-10T00:40:19.330Z,7.70
2019-04-10T00:42:51.609Z,7.76
2019-04-10T00:45:23.652Z,7.78
2019-04-10T00:47:55.338Z,7.76
2019-04-10T00:50:27.145Z,7.58
2019-04-10T00:52:58.862Z,7.58
2019-04-10T00:55:30.603Z,7.73
2019-04-10T00:58:02.364Z,7.74
2019-04-10T01:00:36.455Z,7.81
2019-04-10T01:03:09.279Z,7.79
2019-04-10T01:05:41.646Z,7.75
2019-04-10T01:08:13.378Z,7.63
2019-04-10T01:10:46.236Z,7.65
2019-04-10T01:13:18.816Z,7.63
2019-04-10T01:15:51.002Z,7.64
2019-04-10T01:18:23.392Z,7.45
2019-04-10T01:20:55.691Z,7.66
2019-04-10T01:23:27.570Z,7.32
2019-04-10T01:25:59.597Z,7.38
2019-04-10T01:28:31.329Z,7.38
2019-04-10T01:31:03.225Z,7.52
2019-04-10T01:33:35.004Z,7.57
2019-04-10T01:36:07.021Z,7.62
2019-04-10T01:38:39.786Z,7.65
2019-04-10T01:41:11.865Z,7.66
2019-04-10T01:43:43.539Z,7.89
2019-04-10T01:46:15.915Z,7.61
2019-04-10T01:48:47.754Z,7.53
2019-04-10T01:51:19.808Z,7.40
2019-04-10T01:53:52.376Z,7.45
2019-04-10T01:56:30.187Z,7.50
2019-04-10T01:58:57.445Z,7.46
2019-04-10T02:01:32.696Z,7.43
2019-04-10T02:04:04.737Z,7.46
2019-04-10T02:06:36.495Z,7.53
2019-04-10T02:09:11.044Z,7.71
2019-04-10T02:11:42.997Z,7.70
2019-04-10T02:14:14.711Z,7.47
2019-04-10T02:16:47.296Z,7.23
2019-04-10T02:19:19.008Z,7.29
2019-04-10T02:21:51.652Z,7.35
2019-04-10T02:24:25.130Z,7.39
2019-04-10T02:26:58.120Z,7.38
2019-04-10T02:29:29.933Z,7.34
2019-04-10T02:32:02.168Z,7.36
2019-04-10T02:34:34.444Z,7.37
2019-04-10T02:37:06.861Z,7.37
2019-04-10T02:39:46.082Z,7.34
2019-04-10T02:42:14.252Z,7.32
2019-04-10T02:44:46.150Z,7.37
2019-04-10T02:47:19.220Z,7.41
2019-04-10T02:49:52.222Z,7.36
2019-04-10T02:52:24.633Z,7.28
2019-04-10T02:54:57.807Z,7.16
2019-04-10T02:57:29.878Z,7.29
2019-04-10T03:00:03.695Z,7.27
2019-04-10T03:02:38.697Z,7.27
2019-04-10T03:05:13.588Z,7.21
2019-04-10T03:07:46.429Z,7.18
2019-04-10T03:10:27.714Z,7.23
2019-04-10T03:12:52.596Z,7.23
2019-04-10T03:15:25.195Z,7.21
2019-04-10T03:17:57.167Z,7.14
2019-04-10T03:20:30.064Z,7.16
2019-04-10T03:23:02.062Z,7.11
2019-04-10T03:25:35.085Z,7.13
2019-04-10T03:28:07.213Z,7.06
2019-04-10T03:30:41.257Z,7.02
2019-04-10T03:33:33.753Z,7.06
2019-04-10T03:36:05.301Z,7.10
2019-04-10T03:38:49.453Z,7.03
2019-04-10T03:41:12.270Z,7.03
2019-04-10T03:43:45.810Z,6.98
2019-04-10T03:46:17.585Z,6.97
2019-04-10T03:48:49.505Z,6.92
2019-04-10T03:51:22.859Z,6.94
2019-04-10T03:53:54.931Z,6.95
2019-04-10T03:56:26.974Z,6.90
2019-04-10T03:58:59.877Z,6.86
2019-04-10T04:01:32.045Z,6.88
2019-04-10T04:04:04.885Z,6.80
2019-04-10T04:06:36.945Z,6.81
2019-04-10T04:09:11.581Z,6.81
2019-04-10T04:11:42.609Z,6.77
2019-04-10T04:14:14.488Z,6.78
2019-04-10T04:16:47.064Z,6.68
2019-04-10T04:19:18.960Z,6.71
2019-04-10T04:21:50.717Z,6.69
2019-04-10T04:24:25.488Z,6.69
2019-04-10T04:26:58.696Z,6.69
2019-04-10T04:29:30.536Z,6.68
2019-04-10T04:32:02.377Z,6.66
2019-04-10T04:34:34.678Z,6.64
2019-04-10T04:37:06.630Z,6.60
2019-04-10T04:39:39.616Z,6.51
2019-04-10T04:42:11.601Z,6.53
2019-04-10T04:44:43.461Z,6.56
2019-04-10T04:47:15.662Z,6.44
2019-04-10T04:49:47.667Z,6.47
2019-04-10T04:52:20.401Z,6.57
2019-04-10T04:54:53.275Z,6.46
2019-04-10T04:57:25.310Z,6.49
2019-04-10T04:59:57.063Z,6.44
2019-04-10T05:02:28.981Z,6.51
2019-04-10T05:05:00.754Z,6.53
2019-04-10T05:07:33.363Z,6.57
2019-04-10T05:10:07.046Z,6.62
2019-04-10T05:12:38.982Z,6.61
2019-04-10T05:15:12.874Z,6.60
2019-04-10T05:17:45.022Z,6.67
2019-04-10T05:20:17.088Z,6.62
2019-04-10T05:22:49.470Z,6.66
2019-04-10T05:25:22.323Z,6.72
2019-04-10T05:27:55.291Z,6.75
2019-04-10T05:30:27.305Z,6.78
2019-04-10T05:32:59.789Z,6.80
2019-04-10T05:35:32.050Z,6.81
2019-04-10T05:38:04.533Z,6.85
2019-04-10T05:40:36.722Z,6.67
2019-04-10T05:43:09.295Z,6.82
2019-04-10T05:45:42.175Z,6.79
2019-04-10T05:48:15.258Z,6.79
2019-04-10T05:50:54.899Z,7.00
2019-04-10T05:53:21.045Z,7.05
2019-04-10T05:55:53.800Z,6.69
2019-04-10T05:58:25.867Z,6.87
2019-04-10T06:00:59.263Z,7.00
2019-04-10T06:03:31.012Z,7.00
2019-04-10T06:06:04.074Z,7.13
2019-04-10T06:08:37.346Z,7.13
2019-04-10T06:11:09.305Z,7.22
2019-04-10T06:13:41.065Z,7.32
2019-04-10T06:16:12.874Z,7.20
2019-04-10T06:18:45.179Z,7.31
2019-04-10T06:21:17.108Z,7.41
2019-04-10T06:23:49.845Z,7.03
2019-04-10T06:26:21.974Z,7.23
2019-04-10T06:28:54.742Z,7.37
2019-04-10T06:31:26.658Z,7.58
2019-04-10T06:33:58.497Z,7.44
2019-04-10T06:36:33.324Z,7.49
2019-04-10T06:39:07.294Z,7.52
2019-04-10T06:41:39.130Z,7.75
2019-04-10T06:44:12.238Z,7.68
2019-04-10T06:46:44.477Z,7.74
2019-04-10T06:49:17.494Z,7.57
2019-04-10T06:51:49.482Z,7.78
2019-04-10T06:54:21.300Z,7.70
2019-04-10T06:56:53.117Z,7.76
2019-04-10T06:59:26.205Z,7.83
2019-04-10T07:02:11.392Z,7.89
2019-04-10T07:04:43.135Z,7.87
2019-04-10T07:07:10.951Z,7.86
2019-04-10T07:09:38.644Z,7.93
2019-04-10T07:12:12.195Z,8.00
2019-04-10T07:14:47.657Z,8.15
2019-04-10T07:17:17.994Z,8.08
2019-04-10T07:19:49.791Z,8.18
2019-04-10T07:22:22.830Z,8.29
2019-04-10T07:24:56.374Z,8.29
2019-04-10T07:27:33.515Z,8.28
2019-04-10T07:30:03.590Z,8.20
2019-04-10T07:32:36.137Z,8.39
2019-04-10T07:35:08.968Z,8.35
2019-04-10T07:37:40.778Z,8.33
2019-04-10T07:40:12.741Z,8.39
2019-04-10T07:42:44.571Z,8.45
2019-04-10T07:45:17.044Z,8.51
2019-04-10T07:47:48.854Z,8.35
2019-04-10T07:50:20.797Z,8.52
2019-04-10T07:52:52.559Z,8.75
2019-04-10T07:55:25.360Z,8.92
2019-04-10T07:57:57.398Z,9.23
2019-04-10T08:00:29.229Z,9.18
2019-04-10T08:03:00.989Z,9.07
2019-04-10T08:05:33.296Z,9.15
2019-04-10T08:08:05.277Z,9.21
2019-04-10T08:10:37.348Z,9.15
2019-04-10T08:13:09.179Z,9.13
2019-04-10T08:15:41.284Z,9.12
2019-04-10T08:18:13.347Z,9.19
2019-04-10T08:20:45.155Z,9.23
2019-04-10T08:23:17.565Z,9.30
2019-04-10T08:25:49.657Z,9.23
2019-04-10T08:28:22.047Z,9.43
2019-04-10T08:30:54.658Z,9.55
2019-04-10T08:33:26.485Z,9.56
2019-04-10T08:35:58.987Z,9.71
2019-04-10T08:38:30.776Z,9.71
2019-04-10T08:41:02.912Z,9.65
2019-04-10T08:43:34.644Z,9.58
2019-04-10T08:46:06.522Z,9.63
2019-04-10T08:48:39.194Z,9.71
2019-04-10T08:51:11.957Z,9.73
2019-04-10T08:53:44.599Z,9.79
2019-04-10T08:56:16.523Z,9.83
2019-04-10T08:58:48.398Z,9.84
2019-04-10T09:01:21.469Z,9.97
2019-04-10T09:03:53.555Z,9.95
2019-04-10T09:06:25.294Z,9.96
2019-04-10T09:08:57.258Z,9.94
2019-04-10T09:11:30.154Z,10.02
2019-04-10T09:14:03.135Z,10.02
2019-04-10T09:16:34.909Z,10.05
2019-04-10T09:19:06.785Z,10.20
2019-04-10T09:21:39.648Z,10.15
2019-04-10T09:24:14.571Z,10.25
2019-04-10T09:26:45.132Z,10.28
2019-04-10T09:29:18.093Z,10.39
2019-04-10T09:31:50.311Z,10.35
2019-04-10T09:34:23.352Z,10.32
2019-04-10T09:36:55.173Z,10.26
2019-04-10T09:39:29.600Z,10.39
2019-04-10T09:42:01.780Z,10.40
2019-04-10T09:44:35.837Z,10.40
2019-04-10T09:47:09.625Z,10.34
2019-04-10T09:49:45.857Z,10.28
2019-04-10T09:52:15.520Z,10.35
2019-04-10T09:54:47.361Z,10.39
2019-04-10T09:57:20.116Z,10.50
2019-04-10T09:59:52.627Z,10.57
2019-04-10T10:02:25.241Z,10.71
2019-04-10T10:04:57.785Z,10.70
2019-04-10T10:07:29.902Z,10.78
2019-04-10T10:10:02.163Z,10.97
2019-04-10T10:12:36.402Z,11.11
2019-04-10T10:15:09.507Z,10.99
2019-04-10T10:17:41.513Z,11.11
2019-04-10T10:20:15.376Z,11.12
2019-04-10T10:22:47.468Z,11.28
2019-04-10T10:25:19.513Z,11.33
2019-04-10T10:27:51.267Z,11.40
2019-04-10T10:30:23.325Z,11.34
2019-04-10T10:32:55.230Z,11.19
2019-04-10T10:35:27.328Z,11.15
2019-04-10T10:37:59.233Z,11.32
2019-04-10T10:40:32.240Z,11.39
2019-04-10T10:43:04.446Z,11.59
2019-04-10T10:45:36.689Z,11.62
2019-04-10T10:48:09.620Z,11.63
2019-04-10T10:50:41.642Z,11.66
2019-04-10T10:53:14.336Z,11.77
2019-04-10T10:55:47.514Z,11.64
2019-04-10T10:58:19.729Z,11.73
2019-04-10T11:00:51.766Z,11.78
2019-04-10T11:03:24.494Z,11.87
2019-04-10T11:05:56.437Z,11.96
2019-04-10T11:08:29.449Z,11.87
2019-04-10T11:11:01.521Z,12.02
2019-04-10T11:13:33.352Z,12.15
2019-04-10T11:16:07.106Z,12.05
2019-04-10T11:18:38.831Z,12.16
2019-04-10T11:21:12.749Z,12.33
2019-04-10T11:23:44.704Z,12.46
2019-04-10T11:26:21.510Z,12.49
2019-04-10T11:28:50.185Z,12.64
2019-04-10T11:31:23.788Z,12.70
2019-04-10T11:33:56.711Z,12.70
2019-04-10T11:36:29.995Z,12.79
2019-04-10T11:39:11.988Z,12.88
2019-04-10T11:41:37.398Z,12.92
2019-04-10T11:44:11.551Z,12.98
2019-04-10T11:46:44.022Z,12.77
2019-04-10T11:49:17.792Z,12.90
2019-04-10T11:51:52.993Z,13.01
2019-04-10T11:54:26.922Z,12.78
2019-04-10T11:57:19.816Z,12.70
2019-04-10T11:59:50.709Z,12.75
2019-04-10T12:02:24.956Z,12.89
2019-04-10T12:05:01.585Z,12.93
2019-04-10T12:08:00.062Z,12.92
2019-04-10T12:12:37.611Z,12.66
2019-04-10T12:15:10.197Z,12.29
2019-04-10T12:17:43.092Z,12.62
2019-04-10T12:20:16.632Z,12.77
2019-04-10T12:22:48.813Z,12.83
2019-04-10T12:25:21.274Z,12.71
2019-04-10T12:27:53.560Z,12.81
2019-04-10T12:30:26.922Z,12.90
2019-04-10T12:32:59.133Z,12.97
2019-04-10T12:35:31.916Z,13.02
2019-04-10T12:38:09.732Z,13.07
2019-04-10T12:40:38.950Z,12.96
2019-04-10T12:43:12.682Z,13.03
2019-04-10T12:45:44.587Z,13.12
2019-04-10T12:48:16.680Z,13.16
2019-04-10T12:50:49.495Z,13.29
2019-04-10T12:53:21.591Z,13.30
2019-04-10T12:55:53.641Z,13.42
2019-04-10T12:58:26.619Z,13.48
2019-04-10T13:00:58.520Z,13.63
2019-04-10T13:03:31.325Z,13.65
2019-04-10T13:06:03.388Z,13.77
2019-04-10T13:08:54.673Z,13.71
2019-04-10T13:11:10.019Z,13.79
2019-04-10T13:13:42.291Z,13.86
2019-04-10T13:16:14.279Z,14.05
2019-04-10T13:18:46.860Z,14.10
2019-04-10T13:21:20.238Z,14.31
2019-04-10T13:23:53.030Z,14.39
2019-04-10T13:26:26.013Z,14.41
2019-04-10T13:28:58.155Z,14.53
2019-04-10T13:31:30.045Z,14.58
2019-04-10T13:34:02.809Z,14.60
2019-04-10T13:36:35.630Z,14.70
2019-04-10T13:39:08.754Z,14.64
2019-04-10T13:41:40.828Z,14.68
2019-04-10T13:44:14.049Z,14.73
2019-04-10T13:46:45.929Z,14.71
2019-04-10T13:49:17.818Z,14.52
2019-04-10T13:51:50.072Z,14.48
2019-04-10T13:54:22.816Z,14.52
2019-04-10T13:56:55.215Z,14.51
2019-04-10T13:59:27.103Z,14.42
2019-04-10T14:01:59.003Z,14.23
2019-04-10T14:04:31.312Z,14.14
2019-04-10T14:07:04.935Z,14.24
2019-04-10T14:09:43.985Z,14.35
2019-04-10T14:12:12.890Z,14.33
2019-04-10T14:14:48.890Z,14.32
2019-04-10T14:17:21.534Z,14.24
2019-04-10T14:19:54.116Z,14.35
2019-04-10T14:22:26.102Z,14.35
2019-04-10T14:24:58.889Z,14.04
2019-04-10T14:27:32.097Z,14.07
2019-04-10T14:30:06.985Z,13.86
2019-04-10T14:32:39.858Z,13.87
2019-04-10T14:35:12.195Z,13.81
2019-04-10T14:37:43.951Z,13.68
2019-04-10T14:40:16.820Z,13.67
2019-04-10T14:42:49.442Z,13.53
2019-04-10T14:45:21.667Z,13.41
2019-04-10T14:47:53.936Z,13.35
2019-04-10T14:50:26.187Z,13.19
2019-04-10T14:52:59.155Z,13.06
2019-04-10T14:55:31.617Z,13.24
2019-04-10T14:58:03.971Z,13.26
2019-04-10T15:00:51.003Z,13.21
2019-04-10T15:03:24.369Z,13.09
2019-04-10T15:05:58.286Z,13.01
2019-04-10T15:08:31.472Z,13.16
2019-04-10T15:11:04.517Z,13.13
2019-04-10T15:13:36.698Z,13.08
2019-04-10T15:16:12.707Z,13.08
2019-04-10T15:18:45.838Z,13.16
2019-04-10T15:21:18.661Z,13.03
2019-04-10T15:23:51.079Z,13.07
2019-04-10T15:26:23.996Z,12.93
2019-04-10T15:28:56.250Z,12.92
2019-04-10T15:31:29.063Z,12.52
2019-04-10T15:34:01.629Z,12.72
2019-04-10T15:36:33.997Z,12.84
2019-04-10T15:39:09.223Z,12.66
2019-04-10T15:41:41.336Z,12.67
2019-04-10T15:44:15.371Z,12.62
2019-04-10T15:46:49.059Z,12.64
2019-04-10T15:49:21.170Z,12.62
2019-04-10T15:51:53.712Z,12.54
2019-04-10T15:54:25.818Z,12.50
2019-04-10T15:56:58.344Z,12.51
2019-04-10T15:59:30.326Z,12.36
2019-04-10T16:02:03.536Z,12.40
2019-04-10T16:04:35.842Z,12.29
2019-04-10T16:07:08.240Z,12.30
2019-04-10T16:09:47.468Z,12.16
2019-04-10T16:12:18.621Z,12.26
2019-04-10T16:14:50.917Z,12.09
2019-04-10T16:17:31.439Z,12.08
2019-04-10T16:20:17.601Z,12.10
2019-04-10T16:23:08.094Z,12.01
2019-04-10T16:25:44.763Z,12.04
2019-04-10T16:28:17.910Z,11.91
2019-04-10T16:30:50.900Z,11.79
2019-04-10T16:33:23.209Z,11.74
2019-04-10T16:35:55.251Z,11.79
2019-04-10T16:38:27.189Z,11.77
2019-04-10T16:40:58.963Z,11.74
2019-04-10T16:43:30.874Z,11.62
2019-04-10T16:46:03.265Z,11.58
2019-04-10T16:48:35.839Z,11.51
2019-04-10T16:51:08.144Z,11.54
2019-04-10T16:53:41.227Z,11.52
2019-04-10T16:56:21.400Z,11.52
2019-04-10T16:58:53.184Z,11.51
2019-04-10T17:01:25.188Z,11.51
2019-04-10T17:03:57.152Z,11.40
2019-04-10T17:06:30.262Z,11.42
2019-04-10T17:09:02.709Z,11.38
2019-04-10T17:11:36.864Z,11.24
2019-04-10T17:14:09.000Z,11.33
2019-04-10T17:16:41.951Z,11.32
2019-04-10T17:19:14.033Z,11.25
2019-04-10T17:21:46.739Z,11.21
2019-04-10T17:24:18.893Z,11.26
2019-04-10T17:26:52.054Z,11.22
2019-04-10T17:29:25.032Z,11.24
2019-04-10T17:31:57.156Z,11.06
2019-04-10T17:34:30.454Z,11.01
2019-04-10T17:37:02.898Z,10.98
2019-04-10T17:39:35.561Z,10.88
2019-04-10T17:42:08.111Z,10.97
2019-04-10T17:44:40.307Z,10.94
2019-04-10T17:47:12.739Z,10.92
2019-04-10T17:49:44.924Z,10.87
2019-04-10T17:52:17.057Z,10.90
2019-04-10T17:54:49.203Z,10.87
2019-04-10T17:57:33.657Z,10.93
2019-04-10T17:59:58.578Z,10.71
2019-04-10T18:03:19.074Z,10.71
2019-04-10T18:05:57.090Z,10.65
2019-04-10T18:08:30.102Z,10.51
2019-04-10T18:11:02.067Z,10.49
2019-04-10T18:13:38.413Z,10.60
2019-04-10T18:16:12.967Z,10.62
2019-04-10T18:18:45.702Z,10.53
2019-04-10T18:21:20.273Z,10.58
2019-04-10T18:23:52.526Z,10.47
2019-04-10T18:26:27.744Z,10.19
2019-04-10T18:29:00.852Z,10.29
2019-04-10T18:31:34.736Z,10.34
2019-04-10T18:34:10.163Z,10.40
2019-04-10T18:36:42.604Z,10.39
2019-04-10T18:39:19.408Z,10.39
2019-04-10T18:41:51.996Z,10.40
2019-04-10T18:44:25.333Z,10.07
2019-04-10T18:46:57.595Z,10.19
2019-04-10T18:49:29.842Z,10.26
2019-04-10T18:52:03.208Z,9.96
2019-04-10T18:54:36.050Z,9.88
2019-04-10T18:57:09.346Z,9.93
2019-04-10T18:59:54.606Z,9.87
2019-04-10T19:02:48.840Z,9.83
2019-04-10T19:05:24.751Z,9.81
2019-04-10T19:07:57.027Z,9.78
2019-04-10T19:10:30.605Z,9.54
2019-04-10T19:13:05.602Z,9.59
2019-04-10T19:15:39.913Z,9.68
2019-04-10T19:18:13.117Z,9.59
2019-04-10T19:20:45.631Z,9.44
2019-04-10T19:23:21.009Z,9.39
2019-04-10T19:25:54.674Z,8.97
2019-04-10T19:28:32.265Z,9.30
2019-04-10T19:31:11.102Z,9.41
2019-04-10T19:33:40.156Z,9.31
2019-04-10T19:36:12.170Z,9.43
2019-04-10T19:38:45.269Z,9.35
2019-04-10T19:41:25.750Z,9.04
2019-04-10T19:43:52.709Z,8.87
2019-04-10T19:46:25.842Z,8.99
2019-04-10T19:48:58.048Z,8.92
2019-04-10T19:51:30.319Z,8.87
2019-04-10T19:54:05.342Z,8.85
2019-04-10T19:56:37.001Z,8.53
2019-04-10T19:59:10.440Z,8.51
2019-04-10T20:01:42.752Z,8.33
2019-04-10T20:04:14.871Z,8.67
2019-04-10T20:06:47.042Z,8.60
2019-04-10T20:09:20.088Z,8.43
2019-04-10T20:11:55.282Z,8.28
2019-04-10T20:14:25.963Z,8.45
2019-04-10T20:16:58.117Z,8.43
2019-04-10T20:19:30.740Z,8.32
2019-04-10T20:22:04.114Z,8.28
2019-04-10T20:24:36.721Z,8.19
2019-04-10T20:27:09.909Z,8.48
2019-04-10T20:29:43.431Z,8.50
2019-04-10T20:32:17.857Z,8.20
2019-04-10T20:34:49.958Z,7.87
2019-04-10T20:37:22.930Z,8.01
2019-04-10T20:39:55.881Z,8.07
2019-04-10T20:42:28.166Z,8.19
2019-04-10T20:45:00.879Z,7.98
2019-04-10T20:47:35.139Z,8.01
2019-04-10T20:50:07.931Z,7.91
2019-04-10T20:52:41.033Z,8.06
2019-04-10T20:55:13.834Z,8.00
2019-04-10T20:57:46.122Z,7.96
2019-04-10T21:00:30.070Z,7.85
2019-04-10T21:03:02.837Z,7.71
2019-04-10T21:05:35.897Z,7.63
2019-04-10T21:08:09.305Z,7.51
2019-04-10T21:10:41.280Z,7.39
2019-04-10T21:13:13.280Z,7.19
2019-04-10T21:15:46.242Z,7.51
2019-04-10T21:18:19.507Z,7.41
2019-04-10T21:20:51.795Z,7.13
2019-04-10T21:23:23.831Z,7.19
2019-04-10T21:25:55.712Z,7.13
2019-04-10T21:28:28.314Z,7.15
2019-04-10T21:31:25.714Z,7.07
2019-04-10T21:34:20.254Z,7.03
2019-04-10T21:36:53.282Z,6.90
2019-04-10T21:39:25.583Z,6.75
2019-04-10T21:42:10.126Z,6.72
2019-04-10T21:44:31.497Z,6.60
2019-04-10T21:47:03.565Z,6.64
2019-04-10T21:49:35.943Z,6.40
2019-04-10T21:52:07.863Z,6.79
2019-04-10T21:54:48.521Z,6.45
2019-04-10T21:57:13.814Z,6.48
2019-04-10T21:59:45.714Z,6.40
2019-04-10T22:02:17.748Z,6.57
2019-04-10T22:04:49.838Z,6.33
2019-04-10T22:07:35.030Z,6.29
2019-04-10T22:10:17.905Z,6.65
2019-04-10T22:12:52.158Z,6.19
2019-04-10T22:15:31.190Z,6.29
2019-04-10T22:18:03.145Z,6.24
2019-04-10T22:20:36.023Z,6.08
2019-04-10T22:23:09.833Z,5.88
2019-04-10T22:25:41.742Z,6.05
2019-04-10T22:28:14.876Z,6.07
2019-04-10T22:30:46.922Z,6.20
2019-04-10T22:33:18.768Z,6.18
2019-04-10T22:35:50.971Z,5.83
2019-04-10T22:38:22.922Z,5.90
2019-04-10T22:40:55.975Z,5.99
2019-04-10T22:43:28.074Z,6.04
2019-04-10T22:46:00.465Z,5.84
2019-04-10T22:48:32.894Z,5.90
2019-04-10T22:51:07.967Z,5.96
2019-04-10T22:53:39.648Z,5.49
2019-04-10T22:56:11.690Z,5.65
2019-04-10T22:58:44.181Z,5.42
2019-04-10T23:01:16.167Z,5.35
2019-04-10T23:03:48.078Z,5.58
2019-04-10T23:06:20.831Z,5.57
2019-04-10T23:08:52.757Z,5.65
2019-04-10T23:11:34.847Z,5.52
2019-04-10T23:13:58.522Z,5.44
2019-04-10T23:16:30.499Z,5.46
2019-04-10T23:19:03.452Z,5.42
2019-04-10T23:21:36.603Z,5.31
2019-04-10T23:24:09.540Z,5.23
2019-04-10T23:26:41.607Z,5.16
2019-04-10T23:29:13.923Z,5.18
2019-04-10T23:31:45.889Z,5.09
2019-04-10T23:34:18.867Z,5.08
2019-04-10T23:36:50.879Z,5.14
2019-04-10T23:39:23.902Z,5.14
2019-04-10T23:41:56.906Z,4.86
2019-04-10T23:44:29.158Z,4.85
2019-04-10T23:47:02.046Z,4.95
2019-04-10T23:49:33.922Z,4.95
2019-04-10T23:52:07.606Z,5.00
2019-04-10T23:54:41.542Z,4.95
2019-04-10T23:57:13.592Z,4.99
2019-04-10T23:59:45.300Z,4.74
